sensor_id;sensor_type;location;lat;lon;timestamp;P1;durP1;ratioP1;P2;durP2;ratioP2
26742;SDS011;14341;51.256;22.478;2022-11-25T00:01:45;96.68;;;46.13;;
26742;SDS011;14341;51.256;22.478;2022-11-25T00:04:49;97.30;;;47.45;;
26742;SDS011;14341;51.256;22.478;2022-11-25T00:07:52;101.45;;;47.30;;
26742;SDS011;14341;51.256;22.478;2022-11-25T00:10:59;108.70;;;48.63;;
26742;SDS011;14341;51.256;22.478;2022-11-25T00:14:02;106.68;;;46.80;;
26742;SDS011;14341;51.256;22.478;2022-11-25T00:17:07;106.95;;;47.63;;
26742;SDS011;14341;51.256;22.478;2022-11-25T00:20:10;111.22;;;48.92;;
26742;SDS011;14341;51.256;22.478;2022-11-25T00:23:14;108.30;;;49.58;;
26742;SDS011;14341;51.256;22.478;2022-11-25T00:26:17;114.97;;;51.15;;
26742;SDS011;14341;51.256;22.478;2022-11-25T00:29:21;114.72;;;52.45;;
26742;SDS011;14341;51.256;22.478;2022-11-25T00:32:26;114.57;;;50.92;;
26742;SDS011;14341;51.256;22.478;2022-11-25T00:35:29;112.18;;;50.60;;
26742;SDS011;14341;51.256;22.478;2022-11-25T00:38:32;111.75;;;49.78;;
26742;SDS011;14341;51.256;22.478;2022-11-25T00:41:36;107.88;;;48.15;;
26742;SDS011;14341;51.256;22.478;2022-11-25T00:44:57;107.18;;;49.00;;
26742;SDS011;14341;51.256;22.478;2022-11-25T00:48:01;108.90;;;49.47;;
26742;SDS011;14341;51.256;22.478;2022-11-25T00:51:05;107.38;;;48.90;;
26742;SDS011;14341;51.256;22.478;2022-11-25T00:54:08;108.10;;;49.72;;
26742;SDS011;14341;51.256;22.478;2022-11-25T00:57:12;112.00;;;51.45;;
26742;SDS011;14341;51.256;22.478;2022-11-25T01:00:19;105.68;;;50.83;;
26742;SDS011;14341;51.256;22.478;2022-11-25T01:03:24;108.22;;;48.45;;
26742;SDS011;14341;51.256;22.478;2022-11-25T01:06:27;101.78;;;49.45;;
26742;SDS011;14341;51.256;22.478;2022-11-25T01:09:31;100.13;;;46.92;;
26742;SDS011;14341;51.256;22.478;2022-11-25T01:12:37;112.22;;;51.83;;
26742;SDS011;14341;51.256;22.478;2022-11-25T01:15:40;105.75;;;50.40;;
26742;SDS011;14341;51.256;22.478;2022-11-25T01:18:44;113.05;;;50.40;;
26742;SDS011;14341;51.256;22.478;2022-11-25T01:21:48;97.38;;;47.95;;
26742;SDS011;14341;51.256;22.478;2022-11-25T01:24:51;107.72;;;51.25;;
26742;SDS011;14341;51.256;22.478;2022-11-25T01:27:55;101.10;;;47.92;;
26742;SDS011;14341;51.256;22.478;2022-11-25T01:31:00;101.93;;;48.95;;
26742;SDS011;14341;51.256;22.478;2022-11-25T01:34:11;109.57;;;49.28;;
26742;SDS011;14341;51.256;22.478;2022-11-25T01:37:16;114.38;;;49.33;;
26742;SDS011;14341;51.256;22.478;2022-11-25T01:40:19;102.60;;;48.65;;
26742;SDS011;14341;51.256;22.478;2022-11-25T01:43:23;106.78;;;48.20;;
26742;SDS011;14341;51.256;22.478;2022-11-25T01:46:26;110.95;;;50.67;;
26742;SDS011;14341;51.256;22.478;2022-11-25T01:49:43;108.97;;;48.95;;
26742;SDS011;14341;51.256;22.478;2022-11-25T01:52:51;115.00;;;49.63;;
26742;SDS011;14341;51.256;22.478;2022-11-25T01:55:59;114.15;;;49.20;;
26742;SDS011;14341;51.256;22.478;2022-11-25T01:59:07;99.97;;;46.67;;
26742;SDS011;14341;51.256;22.478;2022-11-25T02:02:10;104.53;;;46.75;;
26742;SDS011;14341;51.256;22.478;2022-11-25T02:05:17;106.80;;;45.72;;
26742;SDS011;14341;51.256;22.478;2022-11-25T02:08:23;101.38;;;45.92;;
26742;SDS011;14341;51.256;22.478;2022-11-25T02:11:29;100.32;;;46.80;;
26742;SDS011;14341;51.256;22.478;2022-11-25T02:14:33;103.50;;;44.88;;
26742;SDS011;14341;51.256;22.478;2022-11-25T02:17:37;98.38;;;45.22;;
26742;SDS011;14341;51.256;22.478;2022-11-25T02:20:41;101.15;;;46.50;;
26742;SDS011;14341;51.256;22.478;2022-11-25T02:23:46;105.93;;;47.17;;
26742;SDS011;14341;51.256;22.478;2022-11-25T02:26:58;107.97;;;46.28;;
26742;SDS011;14341;51.256;22.478;2022-11-25T02:30:01;107.70;;;45.63;;
26742;SDS011;14341;51.256;22.478;2022-11-25T02:33:04;103.18;;;47.30;;
26742;SDS011;14341;51.256;22.478;2022-11-25T02:36:09;103.97;;;46.28;;
26742;SDS011;14341;51.256;22.478;2022-11-25T02:39:15;111.57;;;49.55;;
26742;SDS011;14341;51.256;22.478;2022-11-25T02:42:22;113.45;;;50.20;;
26742;SDS011;14341;51.256;22.478;2022-11-25T02:45:38;108.55;;;46.67;;
26742;SDS011;14341;51.256;22.478;2022-11-25T02:48:48;112.53;;;48.30;;
26742;SDS011;14341;51.256;22.478;2022-11-25T02:52:10;120.38;;;50.60;;
26742;SDS011;14341;51.256;22.478;2022-11-25T02:55:15;128.35;;;51.20;;
26742;SDS011;14341;51.256;22.478;2022-11-25T02:58:20;124.15;;;50.45;;
26742;SDS011;14341;51.256;22.478;2022-11-25T03:01:24;133.35;;;52.90;;
26742;SDS011;14341;51.256;22.478;2022-11-25T03:04:28;141.15;;;54.40;;
26742;SDS011;14341;51.256;22.478;2022-11-25T03:07:31;155.93;;;56.17;;
26742;SDS011;14341;51.256;22.478;2022-11-25T03:10:34;150.77;;;54.03;;
26742;SDS011;14341;51.256;22.478;2022-11-25T03:13:39;140.80;;;56.03;;
26742;SDS011;14341;51.256;22.478;2022-11-25T03:16:43;152.00;;;55.17;;
26742;SDS011;14341;51.256;22.478;2022-11-25T03:19:46;137.48;;;53.33;;
26742;SDS011;14341;51.256;22.478;2022-11-25T03:22:49;150.85;;;54.72;;
26742;SDS011;14341;51.256;22.478;2022-11-25T03:25:53;154.38;;;55.53;;
26742;SDS011;14341;51.256;22.478;2022-11-25T03:28:58;157.95;;;56.13;;
26742;SDS011;14341;51.256;22.478;2022-11-25T03:32:01;147.77;;;55.20;;
26742;SDS011;14341;51.256;22.478;2022-11-25T03:35:10;156.35;;;55.45;;
26742;SDS011;14341;51.256;22.478;2022-11-25T03:38:14;149.82;;;56.63;;
26742;SDS011;14341;51.256;22.478;2022-11-25T03:41:17;150.50;;;54.50;;
26742;SDS011;14341;51.256;22.478;2022-11-25T03:44:22;150.30;;;56.00;;
26742;SDS011;14341;51.256;22.478;2022-11-25T03:47:25;152.38;;;55.72;;
26742;SDS011;14341;51.256;22.478;2022-11-25T03:50:29;151.73;;;54.95;;
26742;SDS011;14341;51.256;22.478;2022-11-25T03:53:32;158.77;;;57.38;;
26742;SDS011;14341;51.256;22.478;2022-11-25T03:56:38;143.68;;;53.45;;
26742;SDS011;14341;51.256;22.478;2022-11-25T03:59:42;148.45;;;54.60;;
26742;SDS011;14341;51.256;22.478;2022-11-25T04:02:46;156.60;;;55.53;;
26742;SDS011;14341;51.256;22.478;2022-11-25T04:05:50;139.48;;;53.65;;
26742;SDS011;14341;51.256;22.478;2022-11-25T04:08:54;142.57;;;54.65;;
26742;SDS011;14341;51.256;22.478;2022-11-25T04:11:57;149.20;;;54.45;;
26742;SDS011;14341;51.256;22.478;2022-11-25T04:15:29;135.40;;;52.90;;
26742;SDS011;14341;51.256;22.478;2022-11-25T04:18:33;136.43;;;52.05;;
26742;SDS011;14341;51.256;22.478;2022-11-25T04:21:36;130.98;;;51.22;;
26742;SDS011;14341;51.256;22.478;2022-11-25T04:24:40;140.48;;;53.53;;
26742;SDS011;14341;51.256;22.478;2022-11-25T04:27:43;143.43;;;53.20;;
26742;SDS011;14341;51.256;22.478;2022-11-25T04:30:51;131.10;;;51.67;;
26742;SDS011;14341;51.256;22.478;2022-11-25T04:33:54;135.25;;;52.67;;
26742;SDS011;14341;51.256;22.478;2022-11-25T04:36:58;140.13;;;52.78;;
26742;SDS011;14341;51.256;22.478;2022-11-25T04:40:03;129.95;;;49.22;;
26742;SDS011;14341;51.256;22.478;2022-11-25T04:43:08;135.43;;;50.42;;
26742;SDS011;14341;51.256;22.478;2022-11-25T04:46:17;136.60;;;52.47;;
26742;SDS011;14341;51.256;22.478;2022-11-25T04:49:24;145.07;;;52.70;;
26742;SDS011;14341;51.256;22.478;2022-11-25T04:52:27;138.68;;;50.65;;
26742;SDS011;14341;51.256;22.478;2022-11-25T04:55:31;146.70;;;52.80;;
26742;SDS011;14341;51.256;22.478;2022-11-25T04:58:38;146.98;;;52.80;;
26742;SDS011;14341;51.256;22.478;2022-11-25T05:02:06;145.90;;;51.67;;
26742;SDS011;14341;51.256;22.478;2022-11-25T05:05:15;154.50;;;53.83;;
26742;SDS011;14341;51.256;22.478;2022-11-25T05:08:18;155.70;;;51.53;;
26742;SDS011;14341;51.256;22.478;2022-11-25T05:11:22;155.30;;;53.95;;
26742;SDS011;14341;51.256;22.478;2022-11-25T05:14:26;150.32;;;53.15;;
26742;SDS011;14341;51.256;22.478;2022-11-25T05:17:31;150.05;;;51.75;;
26742;SDS011;14341;51.256;22.478;2022-11-25T05:20:35;180.90;;;55.35;;
26742;SDS011;14341;51.256;22.478;2022-11-25T05:23:38;173.35;;;54.90;;
26742;SDS011;14341;51.256;22.478;2022-11-25T05:26:42;175.68;;;53.92;;
26742;SDS011;14341;51.256;22.478;2022-11-25T05:29:45;174.15;;;55.17;;
26742;SDS011;14341;51.256;22.478;2022-11-25T05:32:58;172.25;;;53.13;;
26742;SDS011;14341;51.256;22.478;2022-11-25T05:36:02;177.63;;;55.67;;
26742;SDS011;14341;51.256;22.478;2022-11-25T05:39:15;161.73;;;51.58;;
26742;SDS011;14341;51.256;22.478;2022-11-25T05:42:41;170.52;;;51.92;;
26742;SDS011;14341;51.256;22.478;2022-11-25T05:45:46;177.38;;;52.25;;
26742;SDS011;14341;51.256;22.478;2022-11-25T05:48:52;161.70;;;50.67;;
26742;SDS011;14341;51.256;22.478;2022-11-25T05:51:57;169.05;;;51.17;;
26742;SDS011;14341;51.256;22.478;2022-11-25T05:55:06;165.30;;;50.83;;
26742;SDS011;14341;51.256;22.478;2022-11-25T05:58:10;179.25;;;50.65;;
26742;SDS011;14341;51.256;22.478;2022-11-25T06:01:19;177.75;;;51.47;;
26742;SDS011;14341;51.256;22.478;2022-11-25T06:04:24;158.65;;;50.38;;
26742;SDS011;14341;51.256;22.478;2022-11-25T06:07:27;169.55;;;50.13;;
26742;SDS011;14341;51.256;22.478;2022-11-25T06:10:30;178.45;;;51.20;;
26742;SDS011;14341;51.256;22.478;2022-11-25T06:13:35;157.27;;;48.88;;
26742;SDS011;14341;51.256;22.478;2022-11-25T06:16:39;174.70;;;51.25;;
26742;SDS011;14341;51.256;22.478;2022-11-25T06:19:56;163.00;;;49.78;;
26742;SDS011;14341;51.256;22.478;2022-11-25T06:23:00;152.65;;;48.58;;
26742;SDS011;14341;51.256;22.478;2022-11-25T06:26:07;156.90;;;50.38;;
26742;SDS011;14341;51.256;22.478;2022-11-25T06:29:13;152.05;;;48.42;;
26742;SDS011;14341;51.256;22.478;2022-11-25T06:32:23;145.32;;;47.47;;
26742;SDS011;14341;51.256;22.478;2022-11-25T06:35:34;140.80;;;48.65;;
26742;SDS011;14341;51.256;22.478;2022-11-25T06:38:38;149.32;;;49.15;;
26742;SDS011;14341;51.256;22.478;2022-11-25T06:41:41;158.07;;;51.30;;
26742;SDS011;14341;51.256;22.478;2022-11-25T06:44:45;150.98;;;47.90;;
26742;SDS011;14341;51.256;22.478;2022-11-25T06:47:49;146.45;;;47.80;;
26742;SDS011;14341;51.256;22.478;2022-11-25T06:50:57;149.07;;;49.60;;
26742;SDS011;14341;51.256;22.478;2022-11-25T06:54:02;105.33;;;38.07;;
26742;SDS011;14341;51.256;22.478;2022-11-25T06:57:05;108.35;;;39.83;;
26742;SDS011;14341;51.256;22.478;2022-11-25T07:00:09;124.45;;;41.90;;
26742;SDS011;14341;51.256;22.478;2022-11-25T07:03:13;89.20;;;33.60;;
26742;SDS011;14341;51.256;22.478;2022-11-25T07:06:18;87.65;;;35.85;;
26742;SDS011;14341;51.256;22.478;2022-11-25T07:09:22;84.88;;;32.97;;
26742;SDS011;14341;51.256;22.478;2022-11-25T07:12:25;78.25;;;31.25;;
26742;SDS011;14341;51.256;22.478;2022-11-25T07:15:29;79.10;;;34.55;;
26742;SDS011;14341;51.256;22.478;2022-11-25T07:18:35;80.65;;;35.00;;
26742;SDS011;14341;51.256;22.478;2022-11-25T07:21:42;74.05;;;31.73;;
26742;SDS011;14341;51.256;22.478;2022-11-25T07:24:46;56.65;;;25.63;;
26742;SDS011;14341;51.256;22.478;2022-11-25T07:27:50;64.78;;;28.77;;
26742;SDS011;14341;51.256;22.478;2022-11-25T07:30:54;65.85;;;29.58;;
26742;SDS011;14341;51.256;22.478;2022-11-25T07:34:18;68.13;;;30.80;;
26742;SDS011;14341;51.256;22.478;2022-11-25T07:37:24;69.65;;;28.70;;
26742;SDS011;14341;51.256;22.478;2022-11-25T07:40:29;61.47;;;27.13;;
26742;SDS011;14341;51.256;22.478;2022-11-25T07:43:32;59.17;;;26.75;;
26742;SDS011;14341;51.256;22.478;2022-11-25T07:46:37;58.70;;;26.88;;
26742;SDS011;14341;51.256;22.478;2022-11-25T07:49:42;64.55;;;29.17;;
26742;SDS011;14341;51.256;22.478;2022-11-25T07:52:47;55.20;;;26.25;;
26742;SDS011;14341;51.256;22.478;2022-11-25T07:55:50;59.63;;;28.25;;
26742;SDS011;14341;51.256;22.478;2022-11-25T07:58:53;64.07;;;27.60;;
26742;SDS011;14341;51.256;22.478;2022-11-25T08:01:57;61.53;;;27.65;;
26742;SDS011;14341;51.256;22.478;2022-11-25T08:05:00;58.78;;;26.70;;
26742;SDS011;14341;51.256;22.478;2022-11-25T08:08:05;57.17;;;27.40;;
26742;SDS011;14341;51.256;22.478;2022-11-25T08:11:09;60.90;;;27.80;;
26742;SDS011;14341;51.256;22.478;2022-11-25T08:14:14;65.50;;;29.10;;
26742;SDS011;14341;51.256;22.478;2022-11-25T08:17:17;70.50;;;29.17;;
26742;SDS011;14341;51.256;22.478;2022-11-25T08:20:20;61.83;;;28.15;;
26742;SDS011;14341;51.256;22.478;2022-11-25T08:23:25;59.92;;;27.77;;
26742;SDS011;14341;51.256;22.478;2022-11-25T08:26:29;69.53;;;28.52;;
26742;SDS011;14341;51.256;22.478;2022-11-25T08:29:35;60.25;;;27.55;;
26742;SDS011;14341;51.256;22.478;2022-11-25T08:32:38;54.17;;;25.77;;
26742;SDS011;14341;51.256;22.478;2022-11-25T08:35:42;54.38;;;25.17;;
26742;SDS011;14341;51.256;22.478;2022-11-25T08:38:47;50.50;;;25.75;;
26742;SDS011;14341;51.256;22.478;2022-11-25T08:41:52;51.00;;;24.88;;
26742;SDS011;14341;51.256;22.478;2022-11-25T08:44:55;55.55;;;27.65;;
26742;SDS011;14341;51.256;22.478;2022-11-25T08:47:58;60.92;;;30.10;;
26742;SDS011;14341;51.256;22.478;2022-11-25T08:51:04;61.00;;;27.17;;
26742;SDS011;14341;51.256;22.478;2022-11-25T08:54:11;57.10;;;25.98;;
26742;SDS011;14341;51.256;22.478;2022-11-25T08:57:15;59.13;;;28.20;;
26742;SDS011;14341;51.256;22.478;2022-11-25T09:00:19;67.65;;;27.83;;
26742;SDS011;14341;51.256;22.478;2022-11-25T09:03:24;60.33;;;28.83;;
26742;SDS011;14341;51.256;22.478;2022-11-25T09:06:28;55.85;;;26.58;;
26742;SDS011;14341;51.256;22.478;2022-11-25T09:09:33;53.88;;;25.10;;
26742;SDS011;14341;51.256;22.478;2022-11-25T09:12:37;52.25;;;26.45;;
26742;SDS011;14341;51.256;22.478;2022-11-25T09:15:40;56.85;;;26.38;;
26742;SDS011;14341;51.256;22.478;2022-11-25T09:18:43;59.53;;;27.00;;
26742;SDS011;14341;51.256;22.478;2022-11-25T09:21:52;62.08;;;29.83;;
26742;SDS011;14341;51.256;22.478;2022-11-25T09:24:57;57.67;;;27.45;;
26742;SDS011;14341;51.256;22.478;2022-11-25T09:28:01;56.78;;;29.10;;
26742;SDS011;14341;51.256;22.478;2022-11-25T09:31:05;55.65;;;26.75;;
26742;SDS011;14341;51.256;22.478;2022-11-25T09:34:09;56.33;;;26.10;;
26742;SDS011;14341;51.256;22.478;2022-11-25T09:37:13;56.80;;;26.70;;
26742;SDS011;14341;51.256;22.478;2022-11-25T09:40:18;53.63;;;26.20;;
26742;SDS011;14341;51.256;22.478;2022-11-25T09:43:26;57.00;;;27.23;;
26742;SDS011;14341;51.256;22.478;2022-11-25T09:46:56;63.33;;;29.10;;
26742;SDS011;14341;51.256;22.478;2022-11-25T09:50:11;50.22;;;25.30;;
26742;SDS011;14341;51.256;22.478;2022-11-25T09:53:25;56.90;;;28.23;;
26742;SDS011;14341;51.256;22.478;2022-11-25T09:56:42;60.83;;;27.90;;
26742;SDS011;14341;51.256;22.478;2022-11-25T09:59:53;52.60;;;25.65;;
26742;SDS011;14341;51.256;22.478;2022-11-25T10:03:15;49.83;;;26.55;;
26742;SDS011;14341;51.256;22.478;2022-11-25T10:06:24;57.00;;;26.83;;
26742;SDS011;14341;51.256;22.478;2022-11-25T10:09:31;53.65;;;27.85;;
26742;SDS011;14341;51.256;22.478;2022-11-25T10:12:38;62.03;;;29.48;;
26742;SDS011;14341;51.256;22.478;2022-11-25T10:15:47;58.08;;;31.15;;
26742;SDS011;14341;51.256;22.478;2022-11-25T10:18:54;61.72;;;31.70;;
26742;SDS011;14341;51.256;22.478;2022-11-25T10:22:01;56.45;;;27.95;;
26742;SDS011;14341;51.256;22.478;2022-11-25T10:25:18;58.42;;;28.38;;
26742;SDS011;14341;51.256;22.478;2022-11-25T10:28:29;52.35;;;26.88;;
26742;SDS011;14341;51.256;22.478;2022-11-25T10:31:34;51.10;;;25.40;;
26742;SDS011;14341;51.256;22.478;2022-11-25T10:34:39;49.42;;;24.35;;
26742;SDS011;14341;51.256;22.478;2022-11-25T10:37:48;49.88;;;25.90;;
26742;SDS011;14341;51.256;22.478;2022-11-25T10:40:55;46.42;;;24.02;;
26742;SDS011;14341;51.256;22.478;2022-11-25T10:44:01;46.75;;;24.30;;
26742;SDS011;14341;51.256;22.478;2022-11-25T10:47:11;54.70;;;25.75;;
26742;SDS011;14341;51.256;22.478;2022-11-25T10:50:24;46.55;;;25.35;;
26742;SDS011;14341;51.256;22.478;2022-11-25T10:53:35;53.10;;;26.30;;
26742;SDS011;14341;51.256;22.478;2022-11-25T10:56:44;55.10;;;27.65;;
26742;SDS011;14341;51.256;22.478;2022-11-25T10:59:54;62.90;;;28.85;;
26742;SDS011;14341;51.256;22.478;2022-11-25T11:03:00;57.58;;;27.40;;
26742;SDS011;14341;51.256;22.478;2022-11-25T11:06:28;53.65;;;27.50;;
26742;SDS011;14341;51.256;22.478;2022-11-25T11:09:34;60.50;;;28.95;;
26742;SDS011;14341;51.256;22.478;2022-11-25T11:12:43;82.65;;;37.45;;
26742;SDS011;14341;51.256;22.478;2022-11-25T11:15:54;56.95;;;28.20;;
26742;SDS011;14341;51.256;22.478;2022-11-25T11:18:58;63.83;;;31.00;;
26742;SDS011;14341;51.256;22.478;2022-11-25T11:22:13;57.53;;;28.73;;
26742;SDS011;14341;51.256;22.478;2022-11-25T11:25:25;66.80;;;30.85;;
26742;SDS011;14341;51.256;22.478;2022-11-25T11:28:37;61.42;;;28.92;;
26742;SDS011;14341;51.256;22.478;2022-11-25T11:31:44;65.85;;;31.05;;
26742;SDS011;14341;51.256;22.478;2022-11-25T11:34:54;71.25;;;30.42;;
26742;SDS011;14341;51.256;22.478;2022-11-25T11:38:06;70.53;;;31.67;;
26742;SDS011;14341;51.256;22.478;2022-11-25T11:41:20;63.47;;;30.88;;
26742;SDS011;14341;51.256;22.478;2022-11-25T11:44:33;63.83;;;30.27;;
26742;SDS011;14341;51.256;22.478;2022-11-25T11:47:45;67.25;;;31.17;;
26742;SDS011;14341;51.256;22.478;2022-11-25T11:51:02;64.35;;;30.08;;
26742;SDS011;14341;51.256;22.478;2022-11-25T11:54:16;74.78;;;31.65;;
26742;SDS011;14341;51.256;22.478;2022-11-25T11:57:25;65.75;;;31.60;;
26742;SDS011;14341;51.256;22.478;2022-11-25T12:00:37;70.40;;;31.92;;
26742;SDS011;14341;51.256;22.478;2022-11-25T12:03:50;82.63;;;33.95;;
26742;SDS011;14341;51.256;22.478;2022-11-25T12:06:59;88.10;;;36.67;;
26742;SDS011;14341;51.256;22.478;2022-11-25T12:10:09;83.40;;;39.00;;
26742;SDS011;14341;51.256;22.478;2022-11-25T12:13:22;75.80;;;33.90;;
26742;SDS011;14341;51.256;22.478;2022-11-25T12:16:30;79.15;;;35.97;;
26742;SDS011;14341;51.256;22.478;2022-11-25T12:19:42;76.45;;;34.92;;
26742;SDS011;14341;51.256;22.478;2022-11-25T12:22:52;89.65;;;37.08;;
26742;SDS011;14341;51.256;22.478;2022-11-25T12:26:02;88.47;;;37.70;;
26742;SDS011;14341;51.256;22.478;2022-11-25T12:29:11;65.87;;;28.47;;
26742;SDS011;14341;51.256;22.478;2022-11-25T12:32:29;91.72;;;42.35;;
26742;SDS011;14341;51.256;22.478;2022-11-25T12:35:53;102.78;;;45.72;;
26742;SDS011;14341;51.256;22.478;2022-11-25T12:39:04;80.35;;;39.70;;
26742;SDS011;14341;51.256;22.478;2022-11-25T12:42:14;86.90;;;40.25;;
26742;SDS011;14341;51.256;22.478;2022-11-25T12:45:22;80.43;;;37.58;;
26742;SDS011;14341;51.256;22.478;2022-11-25T12:48:27;88.70;;;41.42;;
26742;SDS011;14341;51.256;22.478;2022-11-25T12:55:22;86.15;;;36.63;;
26742;SDS011;14341;51.256;22.478;2022-11-25T12:58:34;79.13;;;34.88;;
26742;SDS011;14341;51.256;22.478;2022-11-25T13:01:50;86.32;;;37.60;;
26742;SDS011;14341;51.256;22.478;2022-11-25T13:05:15;86.43;;;39.38;;
26742;SDS011;14341;51.256;22.478;2022-11-25T13:12:09;82.82;;;38.78;;
26742;SDS011;14341;51.256;22.478;2022-11-25T13:15:23;82.10;;;38.88;;
26742;SDS011;14341;51.256;22.478;2022-11-25T13:18:30;82.70;;;37.38;;
26742;SDS011;14341;51.256;22.478;2022-11-25T13:21:35;88.15;;;38.67;;
26742;SDS011;14341;51.256;22.478;2022-11-25T13:24:40;77.63;;;38.28;;
26742;SDS011;14341;51.256;22.478;2022-11-25T13:27:55;85.60;;;38.42;;
26742;SDS011;14341;51.256;22.478;2022-11-25T13:31:16;91.82;;;38.67;;
26742;SDS011;14341;51.256;22.478;2022-11-25T13:34:25;86.43;;;39.25;;
26742;SDS011;14341;51.256;22.478;2022-11-25T13:37:34;103.88;;;45.78;;
26742;SDS011;14341;51.256;22.478;2022-11-25T13:40:41;142.90;;;58.15;;
26742;SDS011;14341;51.256;22.478;2022-11-25T13:43:59;209.82;;;85.13;;
26742;SDS011;14341;51.256;22.478;2022-11-25T13:47:21;231.85;;;89.57;;
26742;SDS011;14341;51.256;22.478;2022-11-25T13:53:50;89.45;;;40.58;;
26742;SDS011;14341;51.256;22.478;2022-11-25T13:56:58;95.38;;;43.45;;
26742;SDS011;14341;51.256;22.478;2022-11-25T14:04:00;101.53;;;50.10;;
26742;SDS011;14341;51.256;22.478;2022-11-25T14:07:09;119.60;;;50.00;;
26742;SDS011;14341;51.256;22.478;2022-11-25T14:10:35;117.03;;;53.72;;
26742;SDS011;14341;51.256;22.478;2022-11-25T14:13:54;114.70;;;47.60;;
26742;SDS011;14341;51.256;22.478;2022-11-25T14:17:13;99.55;;;43.28;;
26742;SDS011;14341;51.256;22.478;2022-11-25T14:20:31;87.68;;;38.72;;
26742;SDS011;14341;51.256;22.478;2022-11-25T14:23:48;89.65;;;40.67;;
26742;SDS011;14341;51.256;22.478;2022-11-25T14:27:13;92.47;;;45.55;;
26742;SDS011;14341;51.256;22.478;2022-11-25T14:30:19;83.20;;;43.45;;
26742;SDS011;14341;51.256;22.478;2022-11-25T14:33:23;85.07;;;42.67;;
26742;SDS011;14341;51.256;22.478;2022-11-25T14:36:32;80.30;;;42.92;;
26742;SDS011;14341;51.256;22.478;2022-11-25T14:39:41;104.20;;;55.15;;
26742;SDS011;14341;51.256;22.478;2022-11-25T14:42:51;103.28;;;48.65;;
26742;SDS011;14341;51.256;22.478;2022-11-25T14:46:11;120.27;;;57.10;;
26742;SDS011;14341;51.256;22.478;2022-11-25T14:49:17;115.72;;;57.40;;
26742;SDS011;14341;51.256;22.478;2022-11-25T14:52:40;123.10;;;60.10;;
26742;SDS011;14341;51.256;22.478;2022-11-25T14:55:46;126.45;;;60.42;;
26742;SDS011;14341;51.256;22.478;2022-11-25T14:58:50;125.13;;;61.13;;
26742;SDS011;14341;51.256;22.478;2022-11-25T15:01:57;137.25;;;66.53;;
26742;SDS011;14341;51.256;22.478;2022-11-25T15:05:01;201.25;;;79.78;;
26742;SDS011;14341;51.256;22.478;2022-11-25T15:08:15;269.70;;;103.22;;
26742;SDS011;14341;51.256;22.478;2022-11-25T15:11:19;151.52;;;70.07;;
26742;SDS011;14341;51.256;22.478;2022-11-25T15:14:25;147.43;;;66.75;;
26742;SDS011;14341;51.256;22.478;2022-11-25T15:17:32;187.43;;;72.78;;
26742;SDS011;14341;51.256;22.478;2022-11-25T15:20:37;227.82;;;90.13;;
26742;SDS011;14341;51.256;22.478;2022-11-25T15:23:42;211.50;;;86.65;;
26742;SDS011;14341;51.256;22.478;2022-11-25T15:26:49;210.00;;;81.18;;
26742;SDS011;14341;51.256;22.478;2022-11-25T15:29:54;344.23;;;135.93;;
26742;SDS011;14341;51.256;22.478;2022-11-25T15:33:00;312.80;;;119.35;;
26742;SDS011;14341;51.256;22.478;2022-11-25T15:36:04;349.40;;;135.45;;
26742;SDS011;14341;51.256;22.478;2022-11-25T15:39:12;284.75;;;110.78;;
26742;SDS011;14341;51.256;22.478;2022-11-25T15:42:20;248.35;;;109.72;;
26742;SDS011;14341;51.256;22.478;2022-11-25T15:45:26;245.88;;;110.93;;
26742;SDS011;14341;51.256;22.478;2022-11-25T15:48:36;207.18;;;93.82;;
26742;SDS011;14341;51.256;22.478;2022-11-25T15:51:42;224.32;;;96.75;;
26742;SDS011;14341;51.256;22.478;2022-11-25T15:54:59;217.90;;;96.32;;
26742;SDS011;14341;51.256;22.478;2022-11-25T15:58:10;200.15;;;87.93;;
26742;SDS011;14341;51.256;22.478;2022-11-25T16:01:20;202.32;;;89.75;;
26742;SDS011;14341;51.256;22.478;2022-11-25T16:04:26;203.50;;;86.57;;
26742;SDS011;14341;51.256;22.478;2022-11-25T16:07:29;211.85;;;89.43;;
26742;SDS011;14341;51.256;22.478;2022-11-25T16:10:34;218.52;;;97.35;;
26742;SDS011;14341;51.256;22.478;2022-11-25T16:13:52;210.52;;;89.85;;
26742;SDS011;14341;51.256;22.478;2022-11-25T16:16:58;191.75;;;83.80;;
26742;SDS011;14341;51.256;22.478;2022-11-25T16:20:12;235.10;;;86.05;;
26742;SDS011;14341;51.256;22.478;2022-11-25T16:23:18;298.55;;;98.43;;
26742;SDS011;14341;51.256;22.478;2022-11-25T16:26:23;297.02;;;97.13;;
26742;SDS011;14341;51.256;22.478;2022-11-25T16:29:30;383.77;;;116.03;;
26742;SDS011;14341;51.256;22.478;2022-11-25T16:32:36;358.58;;;117.57;;
26742;SDS011;14341;51.256;22.478;2022-11-25T16:35:40;394.00;;;126.95;;
26742;SDS011;14341;51.256;22.478;2022-11-25T16:38:44;430.70;;;133.30;;
26742;SDS011;14341;51.256;22.478;2022-11-25T16:41:53;480.63;;;186.75;;
26742;SDS011;14341;51.256;22.478;2022-11-25T16:44:58;442.70;;;136.70;;
26742;SDS011;14341;51.256;22.478;2022-11-25T16:48:08;401.85;;;125.70;;
26742;SDS011;14341;51.256;22.478;2022-11-25T16:51:19;1002.22;;;315.65;;
26742;SDS011;14341;51.256;22.478;2022-11-25T16:54:24;1138.75;;;354.40;;
26742;SDS011;14341;51.256;22.478;2022-11-25T16:57:28;727.85;;;216.48;;
26742;SDS011;14341;51.256;22.478;2022-11-25T17:00:32;661.30;;;234.18;;
26742;SDS011;14341;51.256;22.478;2022-11-25T17:03:35;573.38;;;181.27;;
26742;SDS011;14341;51.256;22.478;2022-11-25T17:06:40;600.28;;;264.88;;
26742;SDS011;14341;51.256;22.478;2022-11-25T17:10:04;288.83;;;104.22;;
26742;SDS011;14341;51.256;22.478;2022-11-25T17:13:11;457.25;;;233.13;;
26742;SDS011;14341;51.256;22.478;2022-11-25T17:16:20;320.45;;;125.75;;
26742;SDS011;14341;51.256;22.478;2022-11-25T17:19:25;329.58;;;124.30;;
26742;SDS011;14341;51.256;22.478;2022-11-25T17:22:31;361.77;;;133.45;;
26742;SDS011;14341;51.256;22.478;2022-11-25T17:25:39;318.30;;;123.10;;
26742;SDS011;14341;51.256;22.478;2022-11-25T17:28:45;414.38;;;145.98;;
26742;SDS011;14341;51.256;22.478;2022-11-25T17:31:54;283.40;;;106.22;;
26742;SDS011;14341;51.256;22.478;2022-11-25T17:35:00;222.40;;;88.93;;
26742;SDS011;14341;51.256;22.478;2022-11-25T17:38:08;275.80;;;101.68;;
26742;SDS011;14341;51.256;22.478;2022-11-25T17:41:17;215.13;;;82.72;;
26742;SDS011;14341;51.256;22.478;2022-11-25T17:44:23;191.75;;;78.63;;
26742;SDS011;14341;51.256;22.478;2022-11-25T17:47:29;163.18;;;70.28;;
26742;SDS011;14341;51.256;22.478;2022-11-25T17:50:32;178.98;;;76.90;;
26742;SDS011;14341;51.256;22.478;2022-11-25T17:53:38;178.02;;;81.55;;
26742;SDS011;14341;51.256;22.478;2022-11-25T17:56:43;184.70;;;79.40;;
26742;SDS011;14341;51.256;22.478;2022-11-25T18:02:56;207.57;;;90.55;;
26742;SDS011;14341;51.256;22.478;2022-11-25T18:05:59;198.02;;;87.68;;
26742;SDS011;14341;51.256;22.478;2022-11-25T18:09:05;198.45;;;85.65;;